In Rescue
 
Open Full Screen Window  High Contrast Mode
Wind Gusting 18 knots
08
October 25, 2021 4:40 PM EDT
Present Weather: Light Rain
Weather Information
Wind Direction
  020 °
Wind Speed
  08 kt (9 mph)
Wind Gust
  18 kt (21 mph)
Altimeter
29.82 in
Visibility
10 SM
Temperature
09° C
48° F
Dewpoint
07° C
45° F
Humidity
87%
Sky Condition
Overcast @ 1,100 ft
MVFR

METAR KTEW 252040Z AUTO 02008G18KT 10SM -RA OVC011 09/07 A2982 RMK AO2 T00850072

FAA Disclaimer: The data displayed is for advisory purposes only and is not to be used for flight planning or operations.